Time;durP1;ratioP1;P1;durP2;ratioP2;P2;SDS_P1;SDS_P2;PMS_P1;PMS_P2;Temp;Humidity;BMP_temperature;BMP_pressure;BME280_temperature;BME280_humidity;BME280_pressure;Samples;Min_cycle;Max_cycle;Signal;HPM_P1;HPM_P2
2023/07/19 00:00:39;;;;;;;;;;;15.80;99.90;;;;;;5115917;28;19915;-82
2023/07/19 00:03:05;;;;;;;;;;;15.80;99.90;;;;;;5122645;27;19908;-82
2023/07/19 00:05:31;;;;;;;;;;;15.80;99.90;;;;;;5114155;27;19999;-82
2023/07/19 00:07:57;;;;;;;;;;;15.80;99.90;;;;;;5134114;27;19918;-80
2023/07/19 00:10:22;;;;;;;;;;;15.60;99.90;;;;;;5148418;27;19913;-80
2023/07/19 00:12:48;;;;;;;;;;;15.60;99.90;;;;;;5134504;27;19912;-80
2023/07/19 00:15:14;;;;;;;;;;;15.60;99.90;;;;;;5116595;27;20006;-81
2023/07/19 00:17:42;;;;;;;;;;;15.50;99.90;;;;;;5134934;27;20422;-81
2023/07/19 00:20:08;;;;;;;;;;;15.40;99.90;;;;;;5135873;27;19947;-80
2023/07/19 00:22:33;;;;;;;;;;;15.40;99.90;;;;;;5117884;27;20292;-80
2023/07/19 00:24:59;;;;;;;;;;;15.50;99.90;;;;;;5134117;27;19918;-81
2023/07/19 00:27:25;;;;;;;;;;;15.60;99.90;;;;;;5118603;27;20010;-80
2023/07/19 00:29:50;;;;;;;;;;;15.70;99.90;;;;;;5114614;27;20443;-81
2023/07/19 00:32:17;;;;;;;;;;;15.70;99.90;;;;;;5132300;27;19911;-81
2023/07/19 00:34:43;;;;;;;;;;;15.80;99.90;;;;;;5134378;27;19916;-81
2023/07/19 00:37:08;;;;;;;;;;;15.80;99.90;;;;;;5132863;27;19914;-80
2023/07/19 00:39:34;;;;;;;;;;;15.90;99.90;;;;;;5127942;27;19915;-83
2023/07/19 00:42:01;;;;;;;;;;;15.90;99.90;;;;;;5107565;27;19968;-80
2023/07/19 00:44:27;;;;;;;;;;;16.00;99.90;;;;;;5117736;27;19965;-80
2023/07/19 00:46:53;;;;;;;;;;;16.00;99.90;;;;;;5112344;27;20308;-81
2023/07/19 00:49:18;;;;;;;;;;;16.10;99.90;;;;;;5131524;27;19908;-81
2023/07/19 00:51:44;;;;;;;;;;;16.00;99.90;;;;;;5120541;27;19915;-82
2023/07/19 00:54:10;;;;;;;;;;;16.00;99.90;;;;;;5088496;28;19920;-81
2023/07/19 00:56:36;;;;;;;;;;;16.00;99.90;;;;;;5115696;27;19915;-80
2023/07/19 00:59:02;;;;;;;;;;;16.00;99.90;;;;;;5111179;27;20437;-80
2023/07/19 01:01:28;;;;;;;;;;;16.00;99.90;;;;;;5117527;28;19915;-81
2023/07/19 01:03:54;;;;;;;;;;;15.90;99.90;;;;;;5106783;27;19911;-81
2023/07/19 01:06:20;;;;;;;;;;;15.80;99.90;;;;;;5127218;27;19943;-81
2023/07/19 01:08:47;;;;;;;;;;;15.80;99.90;;;;;;5127081;27;19911;-81
2023/07/19 01:11:13;;;;;;;;;;;15.80;99.90;;;;;;5121584;27;19915;-82
2023/07/19 01:13:49;;;;;;;;;;;15.70;99.90;;;;;;5125769;27;19919;-80
2023/07/19 01:16:15;;;;;;;;;;;15.70;99.90;;;;;;5120590;27;19907;-82
2023/07/19 01:18:40;;;;;;;;;;;15.60;99.90;;;;;;5121351;27;19923;-82
2023/07/19 01:21:06;;;;;;;;;;;15.60;99.90;;;;;;5098967;27;19923;-82
2023/07/19 01:23:32;;;;;;;;;;;15.60;99.90;;;;;;5103374;28;20387;-81
2023/07/19 01:25:57;;;;;;;;;;;15.50;99.90;;;;;;5119112;27;19912;-82
2023/07/19 01:28:23;;;;;;;;;;;15.30;99.90;;;;;;5109899;28;19908;-81
2023/07/19 01:30:49;;;;;;;;;;;15.30;99.90;;;;;;5117109;28;19953;-83
2023/07/19 01:33:15;;;;;;;;;;;15.20;99.90;;;;;;5133227;27;19978;-82
2023/07/19 01:35:40;;;;;;;;;;;15.20;99.90;;;;;;5113775;27;19919;-82
2023/07/19 01:38:06;;;;;;;;;;;15.20;99.90;;;;;;5123902;27;19998;-83
2023/07/19 01:40:32;;;;;;;;;;;15.20;99.90;;;;;;5100612;28;20327;-81
2023/07/19 01:42:57;;;;;;;;;;;15.20;99.90;;;;;;5086643;28;19916;-81
2023/07/19 01:45:23;;;;;;;;;;;15.20;99.90;;;;;;5118330;27;19960;-81
2023/07/19 01:47:49;;;;;;;;;;;15.30;99.90;;;;;;5099227;27;19954;-82
2023/07/19 01:50:14;;;;;;;;;;;15.30;99.90;;;;;;5120472;27;19907;-80
2023/07/19 01:52:40;;;;;;;;;;;15.30;99.90;;;;;;5113484;27;19913;-82
2023/07/19 01:55:06;;;;;;;;;;;15.30;99.90;;;;;;5118211;27;19958;-81
2023/07/19 01:57:32;;;;;;;;;;;15.30;99.90;;;;;;5123256;27;19914;-79
2023/07/19 01:59:58;;;;;;;;;;;15.30;99.90;;;;;;5115365;27;19908;-81
2023/07/19 02:02:24;;;;;;;;;;;15.30;99.90;;;;;;5111473;27;19908;-83
2023/07/19 02:04:49;;;;;;;;;;;15.30;99.90;;;;;;5114698;27;20256;-83
2023/07/19 02:07:15;;;;;;;;;;;15.30;99.90;;;;;;5112274;28;19908;-82
2023/07/19 02:09:41;;;;;;;;;;;15.30;99.90;;;;;;5114527;28;20000;-80
2023/07/19 02:12:07;;;;;;;;;;;15.40;99.90;;;;;;5114182;28;19915;-82
2023/07/19 02:14:33;;;;;;;;;;;15.40;99.90;;;;;;5095517;28;19923;-83
2023/07/19 02:16:58;;;;;;;;;;;15.30;99.90;;;;;;5129726;28;19915;-82
2023/07/19 02:19:24;;;;;;;;;;;15.30;99.90;;;;;;5114783;28;19912;-84
2023/07/19 02:21:50;;;;;;;;;;;15.20;99.90;;;;;;5085860;28;20380;-84
2023/07/19 02:24:16;;;;;;;;;;;15.10;99.90;;;;;;5118784;28;19976;-84
2023/07/19 02:26:41;;;;;;;;;;;15.10;99.90;;;;;;5113189;28;19919;-83
2023/07/19 02:29:07;;;;;;;;;;;15.00;99.90;;;;;;5106877;28;19907;-83
2023/07/19 02:31:35;;;;;;;;;;;14.90;99.90;;;;;;5112245;28;19908;-83
2023/07/19 02:34:01;;;;;;;;;;;14.90;99.90;;;;;;5117597;27;19915;-84
2023/07/19 02:36:27;;;;;;;;;;;14.90;99.90;;;;;;5139136;27;19914;-83
2023/07/19 02:38:53;;;;;;;;;;;14.80;99.90;;;;;;5126032;27;19940;-83
2023/07/19 02:41:18;;;;;;;;;;;14.80;99.90;;;;;;5114182;28;19912;-83
2023/07/19 02:43:44;;;;;;;;;;;14.80;99.90;;;;;;5129088;27;19908;-84
2023/07/19 02:46:10;;;;;;;;;;;14.70;99.90;;;;;;5135433;27;19958;-82
2023/07/19 02:48:35;;;;;;;;;;;14.70;99.90;;;;;;5132745;27;19919;-82
2023/07/19 02:51:01;;;;;;;;;;;14.80;99.90;;;;;;5110223;27;19918;-82
2023/07/19 02:53:27;;;;;;;;;;;14.70;99.90;;;;;;5099703;28;20001;-81
2023/07/19 02:55:54;;;;;;;;;;;14.70;99.90;;;;;;5115792;27;19908;-83
2023/07/19 02:58:19;;;;;;;;;;;14.70;99.90;;;;;;5119518;27;20272;-82
2023/07/19 03:00:45;;;;;;;;;;;14.70;99.90;;;;;;5138323;27;19908;-83
2023/07/19 03:03:11;;;;;;;;;;;14.70;99.90;;;;;;5132640;27;19912;-83
2023/07/19 03:05:40;;;;;;;;;;;14.70;99.90;;;;;;5138861;27;19908;-82
2023/07/19 03:08:06;;;;;;;;;;;14.70;99.90;;;;;;5136672;27;19973;-83
2023/07/19 03:10:31;;;;;;;;;;;14.60;99.90;;;;;;5133471;27;19971;-81
2023/07/19 03:12:57;;;;;;;;;;;14.60;99.90;;;;;;5128719;27;19908;-81
2023/07/19 03:15:23;;;;;;;;;;;14.60;99.90;;;;;;5099141;28;19962;-82
2023/07/19 03:17:48;;;;;;;;;;;14.60;99.90;;;;;;5128742;27;20329;-83
2023/07/19 03:20:14;;;;;;;;;;;14.60;99.90;;;;;;5116414;27;20391;-81
2023/07/19 03:22:40;;;;;;;;;;;14.60;99.90;;;;;;5102389;28;19919;-81
2023/07/19 03:25:06;;;;;;;;;;;14.60;99.90;;;;;;5120313;27;20277;-81
2023/07/19 03:27:31;;;;;;;;;;;14.60;99.90;;;;;;5125595;27;19915;-80
2023/07/19 03:29:57;;;;;;;;;;;14.60;99.90;;;;;;5128411;27;19999;-82
2023/07/19 03:32:23;;;;;;;;;;;14.60;99.90;;;;;;5130459;27;19914;-80
2023/07/19 03:34:49;;;;;;;;;;;14.60;99.90;;;;;;5114049;28;20268;-83
2023/07/19 03:37:14;;;;;;;;;;;14.50;99.90;;;;;;5117381;27;19912;-82
2023/07/19 03:39:40;;;;;;;;;;;14.40;99.90;;;;;;5127116;27;19958;-81
2023/07/19 03:42:07;;;;;;;;;;;14.40;99.90;;;;;;5124401;27;19911;-83
2023/07/19 03:44:32;;;;;;;;;;;14.30;99.90;;;;;;5128702;27;20304;-81
2023/07/19 03:46:58;;;;;;;;;;;14.20;99.90;;;;;;5110418;27;19907;-83
2023/07/19 03:49:24;;;;;;;;;;;14.20;99.90;;;;;;5132016;27;20398;-82
2023/07/19 03:51:49;;;;;;;;;;;14.20;99.90;;;;;;5125732;27;19935;-82
2023/07/19 03:54:17;;;;;;;;;;;14.20;99.90;;;;;;5132372;27;19943;-82
2023/07/19 03:56:43;;;;;;;;;;;14.20;99.90;;;;;;5107863;27;19909;-83
2023/07/19 03:59:09;;;;;;;;;;;14.20;99.90;;;;;;5095165;28;20379;-80
2023/07/19 04:01:36;;;;;;;;;;;14.20;99.90;;;;;;5116808;28;19908;-83
2023/07/19 04:04:03;;;;;;;;;;;14.20;99.90;;;;;;5098207;28;19953;-82
2023/07/19 04:06:29;;;;;;;;;;;14.20;99.90;;;;;;5117145;28;19961;-81
2023/07/19 04:08:55;;;;;;;;;;;14.30;99.90;;;;;;5116170;28;20381;-83
2023/07/19 04:11:21;;;;;;;;;;;14.30;99.90;;;;;;5118430;27;20015;-81
2023/07/19 04:13:46;;;;;;;;;;;14.40;99.90;;;;;;5115603;28;19930;-84
2023/07/19 04:16:12;;;;;;;;;;;14.40;99.90;;;;;;5115746;28;19915;-83
2023/07/19 04:18:38;;;;;;;;;;;14.40;99.90;;;;;;5097899;28;19930;-82
2023/07/19 04:21:04;;;;;;;;;;;14.40;99.90;;;;;;5116364;28;19908;-82
2023/07/19 04:23:30;;;;;;;;;;;14.40;99.90;;;;;;5116723;27;20370;-83
2023/07/19 04:25:56;;;;;;;;;;;14.50;99.90;;;;;;5108348;28;19927;-82
2023/07/19 04:28:22;;;;;;;;;;;14.50;99.90;;;;;;5101010;28;19908;-82
2023/07/19 04:30:47;;;;;;;;;;;14.50;99.90;;;;;;5097670;28;19908;-83
2023/07/19 04:33:14;;;;;;;;;;;14.40;99.90;;;;;;5116545;28;19908;-84
2023/07/19 04:35:40;;;;;;;;;;;14.40;99.90;;;;;;5099800;28;19908;-85
2023/07/19 04:38:05;;;;;;;;;;;14.40;99.90;;;;;;5101320;28;19908;-84
2023/07/19 04:40:31;;;;;;;;;;;14.30;99.90;;;;;;5119154;28;19919;-84
2023/07/19 04:42:58;;;;;;;;;;;14.30;99.90;;;;;;5100496;28;19916;-84
2023/07/19 04:45:24;;;;;;;;;;;14.30;99.90;;;;;;5115654;27;19911;-85
2023/07/19 04:47:49;;;;;;;;;;;14.40;99.90;;;;;;5142127;27;20009;-85
2023/07/19 04:50:16;;;;;;;;;;;14.40;99.90;;;;;;5127227;27;19951;-86
2023/07/19 04:52:44;;;;;;;;;;;14.40;99.90;;;;;;5111381;28;19915;-88
2023/07/19 04:55:09;;;;;;;;;;;14.40;99.90;;;;;;5084968;28;19952;-84
2023/07/19 04:57:35;;;;;;;;;;;14.40;99.90;;;;;;5110121;28;19915;-85
2023/07/19 05:00:02;;;;;;;;;;;14.50;99.90;;;;;;5120626;27;20337;-83
2023/07/19 05:02:28;;;;;;;;;;;14.40;99.90;;;;;;5121446;27;19912;-84
2023/07/19 05:04:55;;;;;;;;;;;14.40;99.90;;;;;;5129683;27;19908;-80
2023/07/19 05:07:21;;;;;;;;;;;14.30;99.90;;;;;;5114105;27;19912;-83
2023/07/19 05:09:47;;;;;;;;;;;14.40;99.90;;;;;;5137519;27;19976;-81
2023/07/19 05:12:13;;;;;;;;;;;14.40;99.90;;;;;;5127480;27;19920;-81
2023/07/19 05:14:38;;;;;;;;;;;14.50;99.90;;;;;;5098376;28;19919;-82
2023/07/19 05:17:04;;;;;;;;;;;14.50;99.90;;;;;;5107255;27;19926;-82
2023/07/19 05:19:35;;;;;;;;;;;14.50;99.90;;;;;;5122427;27;19985;-83
2023/07/19 05:22:01;;;;;;;;;;;14.50;99.90;;;;;;5140889;27;19946;-83
2023/07/19 05:24:26;;;;;;;;;;;14.50;99.90;;;;;;5112080;27;20369;-80
2023/07/19 05:26:52;;;;;;;;;;;14.50;99.90;;;;;;5112759;27;19915;-83
2023/07/19 05:29:18;;;;;;;;;;;14.50;99.90;;;;;;5115078;27;20429;-83
2023/07/19 05:31:44;;;;;;;;;;;14.60;99.90;;;;;;5106683;28;19912;-82
2023/07/19 05:34:09;;;;;;;;;;;14.60;99.90;;;;;;5112400;27;19922;-82
2023/07/19 05:36:37;;;;;;;;;;;14.60;99.90;;;;;;5125336;27;19918;-83
2023/07/19 05:39:03;;;;;;;;;;;14.50;99.90;;;;;;5082311;28;19908;-84
2023/07/19 05:41:29;;;;;;;;;;;14.50;99.90;;;;;;5114365;27;19919;-84
2023/07/19 05:43:54;;;;;;;;;;;14.40;99.90;;;;;;5124036;27;19914;-85
2023/07/19 05:46:20;;;;;;;;;;;14.30;99.90;;;;;;5102539;28;19912;-87
2023/07/19 05:48:46;;;;;;;;;;;14.30;99.90;;;;;;5121761;27;19958;-82
2023/07/19 05:51:12;;;;;;;;;;;14.20;99.90;;;;;;5111077;27;19912;-83
2023/07/19 05:53:38;;;;;;;;;;;14.10;99.90;;;;;;5129283;27;19912;-82
2023/07/19 05:56:04;;;;;;;;;;;14.10;99.90;;;;;;5096560;28;19916;-82
2023/07/19 05:58:30;;;;;;;;;;;14.10;99.90;;;;;;5090093;28;20234;-84
2023/07/19 06:00:56;;;;;;;;;;;14.20;99.90;;;;;;5111657;27;19960;-84
2023/07/19 06:03:21;;;;;;;;;;;14.00;99.90;;;;;;5101185;27;19915;-84
2023/07/19 06:05:47;;;;;;;;;;;14.00;99.90;;;;;;5087939;27;20325;-85
2023/07/19 06:08:14;;;;;;;;;;;13.90;99.90;;;;;;5117995;28;19953;-86
2023/07/19 06:10:40;;;;;;;;;;;13.90;99.90;;;;;;5092936;28;19912;-84
2023/07/19 06:13:06;;;;;;;;;;;13.90;99.90;;;;;;5108569;27;20010;-83
2023/07/19 06:15:33;;;;;;;;;;;13.80;99.90;;;;;;5109877;28;19967;-87
2023/07/19 06:17:59;;;;;;;;;;;13.70;99.90;;;;;;5089447;28;19908;-84
2023/07/19 06:20:25;;;;;;;;;;;13.70;99.90;;;;;;5096035;28;19916;-83
2023/07/19 06:22:50;;;;;;;;;;;13.70;99.90;;;;;;5101794;28;19942;-83
2023/07/19 06:25:16;;;;;;;;;;;13.70;99.90;;;;;;5120794;28;19915;-81
2023/07/19 06:27:42;;;;;;;;;;;13.70;99.90;;;;;;5114269;28;19914;-82
2023/07/19 06:30:11;;;;;;;;;;;13.70;99.90;;;;;;5131190;28;20056;-84
2023/07/19 06:32:37;;;;;;;;;;;13.70;99.90;;;;;;5113171;28;19950;-83
2023/07/19 06:35:03;;;;;;;;;;;13.60;99.90;;;;;;5128764;28;19959;-82
2023/07/19 06:37:29;;;;;;;;;;;13.70;99.90;;;;;;5126915;28;19953;-82
2023/07/19 06:39:54;;;;;;;;;;;13.70;99.90;;;;;;5130370;28;19954;-84
2023/07/19 06:42:20;;;;;;;;;;;13.70;99.90;;;;;;5106272;28;19921;-83
2023/07/19 06:44:47;;;;;;;;;;;13.70;99.90;;;;;;5098806;28;19907;-85
2023/07/19 06:47:14;;;;;;;;;;;13.70;99.90;;;;;;5123460;28;19915;-85
2023/07/19 06:49:40;;;;;;;;;;;13.60;99.90;;;;;;5136765;28;19967;-86
2023/07/19 06:52:06;;;;;;;;;;;13.70;99.90;;;;;;5095209;28;19922;-82
2023/07/19 06:54:32;;;;;;;;;;;13.70;99.90;;;;;;5080204;28;19916;-82
2023/07/19 06:56:58;;;;;;;;;;;13.70;99.90;;;;;;5110694;28;19999;-85
2023/07/19 06:59:24;;;;;;;;;;;13.80;99.90;;;;;;5121332;28;19922;-82
2023/07/19 07:01:52;;;;;;;;;;;13.70;99.90;;;;;;5125740;28;19911;-83
2023/07/19 07:04:18;;;;;;;;;;;13.80;99.90;;;;;;5112097;28;19915;-81
2023/07/19 07:06:44;;;;;;;;;;;13.80;99.90;;;;;;5115742;28;19908;-84
2023/07/19 07:09:09;;;;;;;;;;;13.90;99.90;;;;;;5119871;28;19916;-83
2023/07/19 07:11:35;;;;;;;;;;;13.90;99.90;;;;;;5113040;28;19914;-82
2023/07/19 07:14:01;;;;;;;;;;;14.00;99.90;;;;;;5106126;28;19920;-83
2023/07/19 07:16:28;;;;;;;;;;;14.00;99.90;;;;;;5123683;28;19911;-84
2023/07/19 07:18:53;;;;;;;;;;;14.10;99.90;;;;;;5135746;28;20265;-83
2023/07/19 07:21:19;;;;;;;;;;;14.00;99.90;;;;;;5130783;27;20005;-82
2023/07/19 07:23:45;;;;;;;;;;;14.00;99.90;;;;;;5124810;27;20274;-82
2023/07/19 07:26:11;;;;;;;;;;;14.00;99.90;;;;;;5127673;27;19912;-82
2023/07/19 07:28:37;;;;;;;;;;;14.00;99.90;;;;;;5125597;27;19915;-83
2023/07/19 07:31:11;;;;;;;;;;;14.00;99.90;;;;;;5097280;28;19908;-82
2023/07/19 07:33:37;;;;;;;;;;;14.00;99.90;;;;;;5088493;28;19927;-85
2023/07/19 07:36:03;;;;;;;;;;;14.00;99.90;;;;;;5111369;27;19918;-82
2023/07/19 07:38:29;;;;;;;;;;;14.00;99.90;;;;;;5120583;27;19907;-82
2023/07/19 07:40:58;;;;;;;;;;;14.10;99.90;;;;;;5119036;27;19912;-84
2023/07/19 07:43:24;;;;;;;;;;;14.20;99.90;;;;;;5095508;27;19977;-83
2023/07/19 07:45:50;;;;;;;;;;;14.20;99.90;;;;;;5084291;28;19913;-84
2023/07/19 07:48:16;;;;;;;;;;;14.30;99.90;;;;;;5087465;27;20352;-85
2023/07/19 07:50:41;;;;;;;;;;;14.40;99.90;;;;;;5104726;28;19922;-82
2023/07/19 07:53:07;;;;;;;;;;;14.50;99.90;;;;;;5127939;27;19907;-84
2023/07/19 07:55:34;;;;;;;;;;;14.50;99.90;;;;;;5120172;27;19918;-84
2023/07/19 07:57:59;;;;;;;;;;;14.60;99.90;;;;;;5099137;28;20299;-83
2023/07/19 08:00:25;;;;;;;;;;;14.50;99.90;;;;;;5099346;28;19951;-85
2023/07/19 08:02:53;;;;;;;;;;;14.50;99.90;;;;;;5089510;28;19916;-85
2023/07/19 08:05:20;;;;;;;;;;;14.50;99.90;;;;;;5106112;27;19912;-86
2023/07/19 08:07:49;;;;;;;;;;;14.50;99.90;;;;;;5097789;28;19919;-84
2023/07/19 08:10:17;;;;;;;;;;;14.60;99.90;;;;;;5085126;28;19908;-84
2023/07/19 08:12:47;;;;;;;;;;;14.60;99.90;;;;;;5108697;27;20337;-84
2023/07/19 08:15:15;;;;;;;;;;;14.70;99.90;;;;;;5128090;27;19926;-85
2023/07/19 08:17:41;;;;;;;;;;;14.80;99.90;;;;;;5113610;27;19914;-81
2023/07/19 08:20:09;;;;;;;;;;;14.90;99.90;;;;;;5100619;27;19975;-82
2023/07/19 08:22:35;;;;;;;;;;;15.00;99.90;;;;;;5113861;27;19914;-84
2023/07/19 08:25:19;;;;;;;;;;;;;;;;;;;;;
2023/07/19 08:27:47;;;;;;;;;;;15.30;99.90;;;;;;5134362;27;20006;-82
2023/07/19 08:30:23;;;;;;;;;;;15.50;99.90;;;;;;5133737;27;19908;-82
2023/07/19 08:32:48;;;;;;;;;;;15.60;99.90;;;;;;5108654;27;19907;-83
2023/07/19 08:35:18;;;;;;;;;;;15.60;99.90;;;;;;5135281;27;19915;-85
2023/07/19 08:37:54;;;;;;;;;;;15.80;99.90;;;;;;5099019;28;19958;-83
2023/07/19 08:40:20;;;;;;;;;;;15.90;99.90;;;;;;5090186;27;20035;-82
2023/07/19 08:42:55;;;;;;;;;;;15.90;99.90;;;;;;5126231;27;20021;-85
2023/07/19 08:45:29;;;;;;;;;;;15.90;99.90;;;;;;5100436;28;19961;-84
2023/07/19 08:47:55;;;;;;;;;;;16.00;99.90;;;;;;5115815;28;20056;-82
2023/07/19 08:50:21;;;;;;;;;;;16.00;99.90;;;;;;5130243;27;19933;-82
2023/07/19 08:52:47;;;;;;;;;;;16.10;99.90;;;;;;5108622;28;19963;-85
2023/07/19 08:55:13;;;;;;;;;;;16.20;99.90;;;;;;5132773;27;19958;-85
2023/07/19 08:57:40;;;;;;;;;;;16.20;99.90;;;;;;5109617;28;19929;-82
2023/07/19 09:00:07;;;;;;;;;;;16.30;99.90;;;;;;5102760;28;20442;-84
2023/07/19 09:02:33;;;;;;;;;;;16.30;99.90;;;;;;5097604;28;19911;-81
2023/07/19 09:05:05;;;;;;;;;;;16.40;99.90;;;;;;5117178;28;20250;-83
2023/07/19 09:07:33;;;;;;;;;;;16.50;99.90;;;;;;5103522;28;19931;-82
2023/07/19 09:10:01;;;;;;;;;;;16.60;99.90;;;;;;5115274;28;19934;-84
2023/07/19 09:12:38;;;;;;;;;;;16.60;99.90;;;;;;5110410;28;20373;-83
2023/07/19 09:15:08;;;;;;;;;;;16.70;99.90;;;;;;5096116;28;19955;-85
2023/07/19 09:17:40;;;;;;;;;;;17.00;99.90;;;;;;5097336;28;19908;-85
2023/07/19 09:20:07;;;;;;;;;;;17.30;99.90;;;;;;5108350;28;20373;-84
2023/07/19 09:22:36;;;;;;;;;;;17.50;99.90;;;;;;5096191;28;19915;-82
2023/07/19 09:25:03;;;;;;;;;;;17.60;99.90;;;;;;5094321;28;19919;-85
2023/07/19 09:27:30;;;;;;;;;;;17.60;99.90;;;;;;5095140;28;19915;-82
2023/07/19 09:29:55;;;;;;;;;;;17.80;99.90;;;;;;5094198;28;19914;-83
2023/07/19 09:32:22;;;;;;;;;;;18.10;99.90;;;;;;5094415;28;20333;-82
2023/07/19 09:34:52;;;;;;;;;;;18.40;99.90;;;;;;5094678;28;19924;-82
2023/07/19 09:37:20;;;;;;;;;;;18.60;99.90;;;;;;5094052;28;20320;-81
2023/07/19 09:39:47;;;;;;;;;;;18.50;99.90;;;;;;5094517;28;19908;-84
2023/07/19 09:42:17;;;;;;;;;;;18.60;99.90;;;;;;5093280;28;20633;-84
2023/07/19 09:44:45;;;;;;;;;;;18.60;99.90;;;;;;5073178;28;19919;-82
2023/07/19 09:47:10;;;;;;;;;;;18.70;99.90;;;;;;5075112;28;19935;-83
2023/07/19 09:49:36;;;;;;;;;;;19.20;99.90;;;;;;5074393;28;20297;-83
2023/07/19 09:52:03;;;;;;;;;;;19.40;99.90;;;;;;5088755;28;19991;-83
2023/07/19 09:54:30;;;;;;;;;;;19.90;99.90;;;;;;5074441;28;19916;-81
2023/07/19 09:56:56;;;;;;;;;;;20.20;99.30;;;;;;5088470;28;19915;-82
2023/07/19 09:59:30;;;;;;;;;;;20.40;97.90;;;;;;5093845;28;19950;-85
2023/07/19 10:01:56;;;;;;;;;;;20.80;97.60;;;;;;5095130;28;19967;-84
2023/07/19 10:04:23;;;;;;;;;;;20.80;95.30;;;;;;5084366;28;19919;-83
2023/07/19 10:06:49;;;;;;;;;;;20.60;94.00;;;;;;5114052;28;19908;-86
2023/07/19 10:09:24;;;;;;;;;;;20.60;95.30;;;;;;5105476;28;19915;-84
2023/07/19 10:11:50;;;;;;;;;;;20.80;94.70;;;;;;5103921;28;19973;-84
2023/07/19 10:14:28;;;;;;;;;;;20.60;94.60;;;;;;5128002;27;19923;-83
2023/07/19 10:16:58;;;;;;;;;;;20.50;94.50;;;;;;5137895;28;20010;-83
2023/07/19 10:19:24;;;;;;;;;;;19.90;93.70;;;;;;5137323;28;19907;-84
2023/07/19 10:22:02;;;;;;;;;;;19.40;93.90;;;;;;5139661;28;20330;-83
2023/07/19 10:24:28;;;;;;;;;;;18.90;94.50;;;;;;5137890;28;19908;-82
2023/07/19 10:26:54;;;;;;;;;;;18.60;94.60;;;;;;5117440;28;19960;-82
2023/07/19 10:29:22;;;;;;;;;;;18.40;95.10;;;;;;5134680;28;19911;-80
2023/07/19 10:31:48;;;;;;;;;;;18.40;95.10;;;;;;5120106;28;19923;-81
2023/07/19 10:34:14;;;;;;;;;;;18.90;95.70;;;;;;5097123;28;19916;-82
2023/07/19 10:36:48;;;;;;;;;;;19.40;94.80;;;;;;5119364;28;20012;-83
2023/07/19 10:39:14;;;;;;;;;;;19.60;93.90;;;;;;5110494;28;19908;-84
2023/07/19 10:41:40;;;;;;;;;;;20.00;93.90;;;;;;5108923;28;20044;-83
2023/07/19 10:44:06;;;;;;;;;;;20.30;92.60;;;;;;5139231;28;19919;-83
2023/07/19 10:46:32;;;;;;;;;;;20.30;91.40;;;;;;5116330;28;19921;-84
2023/07/19 10:49:02;;;;;;;;;;;20.50;91.90;;;;;;5117357;28;19908;-84
2023/07/19 10:51:28;;;;;;;;;;;20.60;91.80;;;;;;5121747;28;19907;-83
2023/07/19 10:53:57;;;;;;;;;;;20.40;91.50;;;;;;5106605;28;19916;-82
2023/07/19 10:56:23;;;;;;;;;;;20.00;91.60;;;;;;5112212;28;19934;-83
2023/07/19 10:58:49;;;;;;;;;;;19.20;92.20;;;;;;5107240;28;19971;-83
2023/07/19 11:01:18;;;;;;;;;;;18.40;93.80;;;;;;5102354;28;19929;-84
2023/07/19 11:03:46;;;;;;;;;;;17.80;95.00;;;;;;5120302;28;20261;-85
2023/07/19 11:06:12;;;;;;;;;;;17.50;95.50;;;;;;5101253;27;20364;-82
2023/07/19 11:08:38;;;;;;;;;;;17.50;96.00;;;;;;5131781;27;19960;-82
2023/07/19 11:11:06;;;;;;;;;;;17.90;96.10;;;;;;5097207;27;19907;-82
2023/07/19 11:13:32;;;;;;;;;;;18.40;96.20;;;;;;5132182;27;19964;-81
2023/07/19 11:15:58;;;;;;;;;;;18.90;95.30;;;;;;5126805;27;19937;-81
2023/07/19 11:18:27;;;;;;;;;;;19.20;94.40;;;;;;5123338;27;20002;-83
2023/07/19 11:20:59;;;;;;;;;;;19.50;94.00;;;;;;5115314;27;19968;-81
2023/07/19 11:23:26;;;;;;;;;;;19.70;93.30;;;;;;5109876;27;20358;-82
2023/07/19 11:26:01;;;;;;;;;;;19.80;93.10;;;;;;5097226;28;20029;-82
2023/07/19 11:28:46;;;;;;;;;;;19.90;92.40;;;;;;5106883;27;19912;-83
2023/07/19 11:31:32;;;;;;;;;;;19.80;91.70;;;;;;5117412;27;19912;-83
2023/07/19 11:34:04;;;;;;;;;;;19.90;91.70;;;;;;5090859;27;19923;-83
2023/07/19 11:36:31;;;;;;;;;;;19.80;91.60;;;;;;5104887;28;20019;-82
2023/07/19 11:38:57;;;;;;;;;;;19.70;91.30;;;;;;5093815;28;19909;-82
2023/07/19 11:41:23;;;;;;;;;;;19.60;91.20;;;;;;5108154;27;19915;-80
2023/07/19 11:43:50;;;;;;;;;;;19.60;91.30;;;;;;5110173;27;19930;-84
2023/07/19 11:46:15;;;;;;;;;;;19.70;91.00;;;;;;5122339;27;19994;-82
2023/07/19 11:48:41;;;;;;;;;;;19.80;90.70;;;;;;5116857;27;19922;-85
2023/07/19 11:51:07;;;;;;;;;;;19.80;90.70;;;;;;5113703;28;19923;-85
2023/07/19 11:53:33;;;;;;;;;;;19.90;90.90;;;;;;5104561;28;19934;-86
2023/07/19 11:55:58;;;;;;;;;;;19.80;90.40;;;;;;5094556;28;19908;-84
2023/07/19 11:58:24;;;;;;;;;;;20.00;90.30;;;;;;5090282;28;19939;-84
2023/07/19 12:00:50;;;;;;;;;;;20.10;90.20;;;;;;5099460;28;19926;-82
2023/07/19 12:03:17;;;;;;;;;;;20.20;89.10;;;;;;5098354;28;19907;-82
2023/07/19 12:05:43;;;;;;;;;;;20.20;88.30;;;;;;5117458;27;19908;-82
2023/07/19 12:08:09;;;;;;;;;;;20.30;87.30;;;;;;5128919;27;19915;-81
2023/07/19 12:10:35;;;;;;;;;;;20.20;86.70;;;;;;5111536;27;20360;-84
2023/07/19 12:13:01;;;;;;;;;;;20.10;87.20;;;;;;5130443;27;19981;-81
2023/07/19 12:15:27;;;;;;;;;;;20.10;87.40;;;;;;5116104;28;20010;-83
2023/07/19 12:17:53;;;;;;;;;;;20.20;87.20;;;;;;5118288;28;19961;-81
2023/07/19 12:20:18;;;;;;;;;;;20.10;85.60;;;;;;5111570;27;19912;-82
2023/07/19 12:22:46;;;;;;;;;;;20.10;86.10;;;;;;5102660;27;19912;-81
2023/07/19 12:25:12;;;;;;;;;;;20.20;86.80;;;;;;5101115;27;19912;-82
2023/07/19 12:27:38;;;;;;;;;;;20.30;86.60;;;;;;5084408;28;19908;-82
2023/07/19 12:30:04;;;;;;;;;;;20.40;85.80;;;;;;5092617;28;19991;-81
2023/07/19 12:32:30;;;;;;;;;;;20.40;86.60;;;;;;5105895;27;20021;-84
2023/07/19 12:34:56;;;;;;;;;;;20.40;86.00;;;;;;5115203;27;19923;-84
2023/07/19 12:37:22;;;;;;;;;;;20.30;85.30;;;;;;5081840;28;19912;-82
2023/07/19 12:39:48;;;;;;;;;;;20.20;84.00;;;;;;5103511;27;19907;-84
2023/07/19 12:42:14;;;;;;;;;;;20.10;84.10;;;;;;5081815;28;19908;-84
2023/07/19 12:44:41;;;;;;;;;;;20.10;84.70;;;;;;5083051;28;19912;-84
2023/07/19 12:47:07;;;;;;;;;;;20.00;84.80;;;;;;5085561;28;20318;-82
2023/07/19 12:49:33;;;;;;;;;;;20.00;85.20;;;;;;5108442;27;19951;-85
2023/07/19 12:51:59;;;;;;;;;;;20.10;85.40;;;;;;5115814;27;20277;-83
2023/07/19 12:54:25;;;;;;;;;;;20.10;85.20;;;;;;5102131;27;19916;-82
2023/07/19 12:56:51;;;;;;;;;;;20.20;85.30;;;;;;5102156;27;19955;-80
2023/07/19 12:59:17;;;;;;;;;;;20.30;84.20;;;;;;5117347;28;19911;-82
2023/07/19 13:01:43;;;;;;;;;;;20.50;84.40;;;;;;5127333;27;19908;-80
2023/07/19 13:04:09;;;;;;;;;;;20.50;83.40;;;;;;5100026;27;19912;-81
2023/07/19 13:06:35;;;;;;;;;;;20.60;83.20;;;;;;5118137;27;19908;-81
2023/07/19 13:09:06;;;;;;;;;;;20.70;82.90;;;;;;5115996;27;20380;-82
2023/07/19 13:11:35;;;;;;;;;;;20.60;82.00;;;;;;5125517;27;19911;-83
2023/07/19 13:14:01;;;;;;;;;;;20.50;81.80;;;;;;5121624;27;19943;-84
2023/07/19 13:16:30;;;;;;;;;;;20.60;82.20;;;;;;5124265;27;19912;-82
2023/07/19 13:18:58;;;;;;;;;;;20.60;80.60;;;;;;5112646;27;19977;-81
2023/07/19 13:21:24;;;;;;;;;;;20.50;80.70;;;;;;5110709;27;19907;-85
2023/07/19 13:23:50;;;;;;;;;;;20.50;81.00;;;;;;5106951;27;19912;-83
2023/07/19 13:26:16;;;;;;;;;;;20.60;81.00;;;;;;5104611;27;19908;-84
2023/07/19 13:28:45;;;;;;;;;;;20.60;80.60;;;;;;5126313;27;19919;-80
2023/07/19 13:31:11;;;;;;;;;;;20.70;80.60;;;;;;5115360;27;19908;-80
2023/07/19 13:33:37;;;;;;;;;;;20.60;80.20;;;;;;5112233;27;19923;-82
2023/07/19 13:36:06;;;;;;;;;;;20.50;80.20;;;;;;5113622;27;20305;-84
2023/07/19 13:38:31;;;;;;;;;;;20.40;80.10;;;;;;5113240;27;19912;-84
2023/07/19 13:40:57;;;;;;;;;;;20.30;79.70;;;;;;5109970;27;20012;-82
2023/07/19 13:43:23;;;;;;;;;;;20.30;80.20;;;;;;5114040;27;19907;-82
2023/07/19 13:45:49;;;;;;;;;;;20.40;80.00;;;;;;5094290;28;19996;-81
2023/07/19 13:48:14;;;;;;;;;;;20.40;80.10;;;;;;5109664;27;19916;-81
2023/07/19 13:50:40;;;;;;;;;;;20.50;80.20;;;;;;5101335;27;19907;-82
2023/07/19 13:53:06;;;;;;;;;;;20.60;80.00;;;;;;5107323;27;19908;-82
2023/07/19 13:55:32;;;;;;;;;;;21.10;80.20;;;;;;5116335;27;20379;-86
2023/07/19 13:58:01;;;;;;;;;;;21.70;79.10;;;;;;5114896;27;19915;-86
2023/07/19 14:00:27;;;;;;;;;;;22.80;77.80;;;;;;5103470;28;19912;-82
2023/07/19 14:02:53;;;;;;;;;;;24.10;77.20;;;;;;5115830;27;20065;-83
2023/07/19 14:05:19;;;;;;;;;;;24.40;74.20;;;;;;5093379;28;19923;-84
2023/07/19 14:07:54;;;;;;;;;;;24.20;73.30;;;;;;5106903;27;19915;-82
2023/07/19 14:10:20;;;;;;;;;;;24.80;74.20;;;;;;5116500;27;20391;-86
2023/07/19 14:12:49;;;;;;;;;;;24.90;70.30;;;;;;5099400;28;19908;-83
2023/07/19 14:15:14;;;;;;;;;;;24.90;69.00;;;;;;5102332;27;19920;-81